createdAt,value
2019-06-15T00:00:14.844Z,100.00
2019-06-15T00:02:43.861Z,100.00
2019-06-15T00:05:13.061Z,100.00
2019-06-15T00:07:42.076Z,100.00
2019-06-15T00:10:11.270Z,100.00
2019-06-15T00:12:40.637Z,100.00
2019-06-15T00:15:09.857Z,100.00
2019-06-15T00:17:38.949Z,100.00
2019-06-15T00:20:08.594Z,100.00
2019-06-15T00:22:37.596Z,100.00
2019-06-15T00:25:07.923Z,100.00
2019-06-15T00:27:36.956Z,100.00
2019-06-15T00:30:08.522Z,100.00
2019-06-15T00:32:37.618Z,100.00
2019-06-15T00:35:08.928Z,100.00
2019-06-15T00:37:38.005Z,100.00
2019-06-15T00:40:09.659Z,100.00
2019-06-15T00:42:38.963Z,100.00
2019-06-15T00:45:09.301Z,100.00
2019-06-15T00:47:38.408Z,100.00
2019-06-15T00:50:07.893Z,100.00
2019-06-15T00:52:36.949Z,100.00
2019-06-15T00:55:07.128Z,100.00
2019-06-15T00:57:37.008Z,100.00
2019-06-15T01:00:07.740Z,100.00
2019-06-15T01:02:36.809Z,100.00
2019-06-15T01:05:07.642Z,100.00
2019-06-15T01:07:36.707Z,100.00
2019-06-15T01:10:07.577Z,100.00
2019-06-15T01:12:36.688Z,100.00
2019-06-15T01:15:06.577Z,100.00
2019-06-15T01:17:35.889Z,100.00
2019-06-15T01:20:07.203Z,100.00
2019-06-15T01:22:36.489Z,100.00
2019-06-15T01:25:10.169Z,100.00
2019-06-15T01:27:40.152Z,100.00
2019-06-15T01:30:11.202Z,100.00
2019-06-15T01:32:40.393Z,100.00
2019-06-15T01:35:09.661Z,100.00
2019-06-15T01:37:38.783Z,100.00
2019-06-15T01:40:09.521Z,100.00
2019-06-15T01:42:39.027Z,100.00
2019-06-15T01:45:09.912Z,100.00
2019-06-15T01:47:39.105Z,100.00
2019-06-15T01:50:09.072Z,100.00
2019-06-15T01:52:38.464Z,100.00
2019-06-15T01:55:20.125Z,100.00
2019-06-15T01:57:39.169Z,100.00
2019-06-15T02:00:09.901Z,100.00
2019-06-15T02:02:39.225Z,100.00
2019-06-15T02:05:09.191Z,100.00
2019-06-15T02:07:38.284Z,100.00
2019-06-15T02:10:10.082Z,100.00
2019-06-15T02:12:39.291Z,100.00
2019-06-15T02:15:09.184Z,100.00
2019-06-15T02:17:38.251Z,100.00
2019-06-15T02:20:08.345Z,100.00
2019-06-15T02:22:37.493Z,100.00
2019-06-15T02:25:07.827Z,100.00
2019-06-15T02:27:37.104Z,100.00
2019-06-15T02:30:07.807Z,100.00
2019-06-15T02:32:36.977Z,100.00
2019-06-15T02:35:06.967Z,100.00
2019-06-15T02:37:36.045Z,100.00
2019-06-15T02:40:07.621Z,100.00
2019-06-15T02:42:36.656Z,100.00
2019-06-15T02:45:07.986Z,100.00
2019-06-15T02:47:37.034Z,100.00
2019-06-15T02:50:10.476Z,100.00
2019-06-15T02:52:39.789Z,100.00
2019-06-15T02:55:09.195Z,100.00
2019-06-15T02:57:38.334Z,100.00
2019-06-15T03:00:09.401Z,100.00
2019-06-15T03:02:39.014Z,100.00
2019-06-15T03:05:09.011Z,100.00
2019-06-15T03:07:38.315Z,100.00
2019-06-15T03:10:08.817Z,100.00
2019-06-15T03:12:38.715Z,100.00
2019-06-15T03:15:09.711Z,100.00
2019-06-15T03:17:38.792Z,100.00
2019-06-15T03:20:08.876Z,100.00
2019-06-15T03:22:38.138Z,100.00
2019-06-15T03:25:12.084Z,100.00
2019-06-15T03:27:41.169Z,100.00
2019-06-15T03:30:11.431Z,100.00
2019-06-15T03:32:40.514Z,100.00
2019-06-15T03:35:10.887Z,100.00
2019-06-15T03:37:40.229Z,100.00
2019-06-15T03:40:09.805Z,100.00
2019-06-15T03:42:38.934Z,100.00
2019-06-15T03:45:09.728Z,100.00
2019-06-15T03:47:39.058Z,100.00
2019-06-15T03:50:08.760Z,100.00
2019-06-15T03:52:37.820Z,100.00
2019-06-15T03:55:07.920Z,100.00
2019-06-15T03:57:36.955Z,100.00
2019-06-15T04:00:09.040Z,100.00
2019-06-15T04:02:38.473Z,100.00
2019-06-15T04:05:07.755Z,100.00
2019-06-15T04:07:37.351Z,100.00
2019-06-15T04:10:07.683Z,100.00
2019-06-15T04:12:36.990Z,100.00
2019-06-15T04:15:06.531Z,100.00
2019-06-15T04:17:35.648Z,100.00
2019-06-15T04:20:05.612Z,100.00
2019-06-15T04:22:34.676Z,100.00
2019-06-15T04:25:05.708Z,100.00
2019-06-15T04:27:35.078Z,100.00
2019-06-15T04:30:06.522Z,100.00
2019-06-15T04:32:35.602Z,100.00
2019-06-15T04:35:06.474Z,100.00
2019-06-15T04:37:36.327Z,100.00
2019-06-15T04:40:06.802Z,100.00
2019-06-15T04:42:35.854Z,100.00
2019-06-15T04:45:06.239Z,100.00
2019-06-15T04:47:35.294Z,100.00
2019-06-15T04:50:06.339Z,100.00
2019-06-15T04:52:35.412Z,100.00
2019-06-15T04:55:07.181Z,100.00
2019-06-15T04:57:36.218Z,100.00
2019-06-15T05:00:12.155Z,100.00
2019-06-15T05:02:41.265Z,100.00
2019-06-15T05:05:10.911Z,100.00
2019-06-15T05:07:40.466Z,100.00
2019-06-15T05:10:10.297Z,100.00
2019-06-15T05:12:39.616Z,100.00
2019-06-15T05:15:11.122Z,100.00
2019-06-15T05:17:40.206Z,100.00
2019-06-15T05:20:10.308Z,100.00
2019-06-15T05:22:39.347Z,100.00
2019-06-15T05:25:08.666Z,100.00
2019-06-15T05:27:38.095Z,100.00
2019-06-15T05:30:11.272Z,100.00
2019-06-15T05:32:40.517Z,100.00
2019-06-15T05:35:10.447Z,100.00
2019-06-15T05:37:39.817Z,100.00
2019-06-15T05:40:09.634Z,100.00
2019-06-15T05:42:38.865Z,100.00
2019-06-15T05:45:08.464Z,100.00
2019-06-15T05:47:37.614Z,100.00
2019-06-15T05:50:08.127Z,100.00
2019-06-15T05:52:37.432Z,100.00
2019-06-15T05:55:08.521Z,100.00
2019-06-15T05:57:38.596Z,100.00
2019-06-15T06:00:11.627Z,100.00
2019-06-15T06:02:40.690Z,100.00
2019-06-15T06:05:11.292Z,100.00
2019-06-15T06:07:40.407Z,100.00
2019-06-15T06:10:11.028Z,100.00
2019-06-15T06:12:40.615Z,100.00
2019-06-15T06:15:10.399Z,100.00
2019-06-15T06:17:42.255Z,100.00
2019-06-15T06:20:11.444Z,100.00
2019-06-15T06:22:40.572Z,100.00
2019-06-15T06:25:11.175Z,100.00
2019-06-15T06:27:40.302Z,100.00
2019-06-15T06:30:11.304Z,100.00
2019-06-15T06:32:40.545Z,100.00
2019-06-15T06:35:10.503Z,100.00
2019-06-15T06:37:39.661Z,100.00
2019-06-15T06:40:12.878Z,100.00
2019-06-15T06:42:41.939Z,100.00
2019-06-15T06:45:12.274Z,100.00
2019-06-15T06:47:41.834Z,100.00
2019-06-15T06:50:13.037Z,100.00
2019-06-15T06:52:42.094Z,100.00
2019-06-15T06:55:11.770Z,100.00
2019-06-15T06:57:51.770Z,100.00
2019-06-15T07:00:15.569Z,100.00
2019-06-15T07:02:44.639Z,100.00
2019-06-15T07:05:14.006Z,100.00
2019-06-15T07:07:43.061Z,100.00
2019-06-15T07:10:13.028Z,100.00
2019-06-15T07:12:42.093Z,100.00
2019-06-15T07:15:11.889Z,100.00
2019-06-15T07:17:40.954Z,100.00
2019-06-15T07:20:12.955Z,100.00
2019-06-15T07:22:42.151Z,100.00
2019-06-15T07:25:11.546Z,100.00
2019-06-15T07:27:40.666Z,100.00
2019-06-15T07:30:11.370Z,100.00
2019-06-15T07:32:40.590Z,100.00
2019-06-15T07:35:10.356Z,100.00
2019-06-15T07:37:39.658Z,100.00
2019-06-15T07:40:09.946Z,100.00
2019-06-15T07:42:39.677Z,100.00
2019-06-15T07:45:09.691Z,100.00
2019-06-15T07:47:38.762Z,97.32
2019-06-15T07:50:09.661Z,97.47
2019-06-15T07:52:39.019Z,100.00
2019-06-15T07:55:08.521Z,98.11
2019-06-15T07:57:37.659Z,100.00
2019-06-15T08:00:11.091Z,100.00
2019-06-15T08:02:40.111Z,100.00
2019-06-15T08:05:09.671Z,100.00
2019-06-15T08:07:38.843Z,100.00
2019-06-15T08:10:09.038Z,100.00
2019-06-15T08:12:38.250Z,100.00
2019-06-15T08:15:09.129Z,100.00
2019-06-15T08:17:38.650Z,100.00
2019-06-15T08:20:16.073Z,100.00
2019-06-15T08:22:45.593Z,100.00
2019-06-15T08:25:14.746Z,100.00
2019-06-15T08:27:43.944Z,100.00
2019-06-15T08:30:14.108Z,100.00
2019-06-15T08:32:43.231Z,100.00
2019-06-15T08:35:13.113Z,100.00
2019-06-15T08:37:42.307Z,100.00
2019-06-15T08:40:12.081Z,100.00
2019-06-15T08:42:41.127Z,100.00
2019-06-15T08:45:11.097Z,100.00
2019-06-15T08:47:40.218Z,100.00
2019-06-15T08:50:10.097Z,100.00
2019-06-15T08:52:39.224Z,100.00
2019-06-15T08:55:09.089Z,98.18
2019-06-15T08:57:40.392Z,88.15
2019-06-15T09:00:09.715Z,78.10
2019-06-15T09:02:38.895Z,75.95
2019-06-15T09:05:09.421Z,77.61
2019-06-15T09:07:38.476Z,75.17
2019-06-15T09:10:10.612Z,75.69
2019-06-15T09:12:39.758Z,76.58
2019-06-15T09:15:10.300Z,75.87
2019-06-15T09:17:39.415Z,78.76
2019-06-15T09:20:11.029Z,78.64
2019-06-15T09:22:40.031Z,79.20
2019-06-15T09:25:09.490Z,79.63
2019-06-15T09:27:38.620Z,78.90
2019-06-15T09:30:08.047Z,76.56
2019-06-15T09:32:37.307Z,72.20
2019-06-15T09:35:09.502Z,69.75
2019-06-15T09:37:38.541Z,61.65
2019-06-15T09:40:08.358Z,58.20
2019-06-15T09:42:37.478Z,62.35
2019-06-15T09:45:08.084Z,68.56
2019-06-15T09:47:37.197Z,61.87
2019-06-15T09:50:06.771Z,60.21
2019-06-15T09:52:35.849Z,59.25
2019-06-15T09:55:06.600Z,62.12
2019-06-15T09:57:35.689Z,56.93
2019-06-15T10:00:09.815Z,55.18
2019-06-15T10:02:39.480Z,53.33
2019-06-15T10:05:09.021Z,55.51
2019-06-15T10:07:38.046Z,56.36
2019-06-15T10:10:08.128Z,61.67
2019-06-15T10:12:37.321Z,68.65
2019-06-15T10:15:10.109Z,68.20
2019-06-15T10:17:39.317Z,70.52
2019-06-15T10:20:10.775Z,70.57
2019-06-15T10:22:40.093Z,69.55
2019-06-15T10:25:09.755Z,72.29
2019-06-15T10:27:38.805Z,74.96
2019-06-15T10:30:10.197Z,74.59
2019-06-15T10:32:39.772Z,76.45
2019-06-15T10:35:09.580Z,79.12
2019-06-15T10:37:38.681Z,78.99
2019-06-15T10:40:09.470Z,79.07
2019-06-15T10:42:38.536Z,79.36
2019-06-15T10:45:08.628Z,80.99
2019-06-15T10:47:38.009Z,80.12
2019-06-15T10:50:08.196Z,79.54
2019-06-15T10:52:37.474Z,79.65
2019-06-15T10:55:08.395Z,79.19
2019-06-15T10:57:37.469Z,77.35
2019-06-15T11:00:11.659Z,75.53
2019-06-15T11:02:41.035Z,77.84
2019-06-15T11:05:12.027Z,79.62
2019-06-15T11:07:41.161Z,77.84
2019-06-15T11:10:13.149Z,76.57
2019-06-15T11:12:46.611Z,76.01
2019-06-15T11:15:14.402Z,74.01
2019-06-15T11:17:43.883Z,76.67
2019-06-15T11:22:40.920Z,80.30
2019-06-15T11:25:10.200Z,81.89
2019-06-15T11:27:39.327Z,83.31
2019-06-15T11:30:13.695Z,83.91
2019-06-15T11:32:39.947Z,85.16
2019-06-15T11:35:09.600Z,86.22
2019-06-15T11:37:38.686Z,85.60
2019-06-15T11:40:08.594Z,86.58
2019-06-15T11:42:37.868Z,86.51
2019-06-15T11:45:07.764Z,84.97
2019-06-15T11:47:36.902Z,85.20
2019-06-15T11:50:11.753Z,85.15
2019-06-15T11:52:39.151Z,84.98
2019-06-15T11:55:08.740Z,86.19
2019-06-15T11:57:37.764Z,85.14
2019-06-15T12:00:07.944Z,83.40
2019-06-15T12:02:37.035Z,82.27
2019-06-15T12:05:07.934Z,81.26
2019-06-15T12:07:37.079Z,79.99
2019-06-15T12:10:07.779Z,82.16
2019-06-15T12:12:36.831Z,82.20
2019-06-15T12:15:07.205Z,82.97
2019-06-15T12:17:36.245Z,84.47
2019-06-15T12:20:06.513Z,84.24
2019-06-15T12:22:35.627Z,84.02
2019-06-15T12:25:06.240Z,82.52
2019-06-15T12:27:35.338Z,80.40
2019-06-15T12:30:07.489Z,79.27
2019-06-15T12:32:36.544Z,79.74
2019-06-15T12:35:07.332Z,83.24
2019-06-15T12:37:36.684Z,80.02
2019-06-15T12:40:06.781Z,78.65
2019-06-15T12:42:35.905Z,76.98
2019-06-15T12:45:05.773Z,77.91
2019-06-15T12:47:35.547Z,80.64
2019-06-15T12:50:06.115Z,78.91
2019-06-15T12:52:35.225Z,76.24
2019-06-15T12:55:05.406Z,77.02
2019-06-15T12:57:34.476Z,77.36
2019-06-15T13:00:05.600Z,77.36
2019-06-15T13:02:34.720Z,75.20
2019-06-15T13:05:05.857Z,73.85
2019-06-15T13:07:34.890Z,71.40
2019-06-15T13:10:05.662Z,73.46
2019-06-15T13:12:35.128Z,77.26
2019-06-15T13:15:05.425Z,80.19
2019-06-15T13:17:34.455Z,81.28
2019-06-15T13:20:05.444Z,83.98
2019-06-15T13:22:34.520Z,83.49
2019-06-15T13:25:05.879Z,85.89
2019-06-15T13:27:34.887Z,88.76
2019-06-15T13:30:06.691Z,88.02
2019-06-15T13:32:35.700Z,85.82
2019-06-15T13:35:07.908Z,85.88
2019-06-15T13:37:41.980Z,85.45
2019-06-15T13:40:08.677Z,83.87
2019-06-15T13:42:37.688Z,83.14
2019-06-15T13:45:07.357Z,80.01
2019-06-15T13:47:36.497Z,80.39
2019-06-15T13:50:07.399Z,80.55
2019-06-15T13:52:36.716Z,83.69
2019-06-15T13:55:06.808Z,83.87
2019-06-15T13:57:36.318Z,79.71
2019-06-15T14:00:09.283Z,76.19
2019-06-15T14:02:38.354Z,76.14
2019-06-15T14:05:08.116Z,75.95
2019-06-15T14:07:37.161Z,71.84
2019-06-15T14:10:10.198Z,70.40
2019-06-15T14:12:39.242Z,69.63
2019-06-15T14:15:09.127Z,69.68
2019-06-15T14:17:39.960Z,67.56
2019-06-15T14:20:09.715Z,67.15
2019-06-15T14:22:38.771Z,68.17
2019-06-15T14:25:08.906Z,66.35
2019-06-15T14:27:37.907Z,66.67
2019-06-15T14:30:08.331Z,64.54
2019-06-15T14:32:37.770Z,64.18
2019-06-15T14:35:08.941Z,65.25
2019-06-15T14:37:38.118Z,66.79
2019-06-15T14:40:07.679Z,63.32
2019-06-15T14:42:36.733Z,63.55
2019-06-15T14:45:07.290Z,63.76
2019-06-15T14:47:36.484Z,65.98
2019-06-15T14:50:07.169Z,65.87
2019-06-15T14:52:36.181Z,65.58
2019-06-15T14:55:07.235Z,65.32
2019-06-15T14:57:36.507Z,63.18
2019-06-15T15:00:08.848Z,63.17
2019-06-15T15:02:38.265Z,64.38
2019-06-15T15:05:07.844Z,64.49
2019-06-15T15:07:37.116Z,64.41
2019-06-15T15:10:10.189Z,66.48
2019-06-15T15:12:41.638Z,64.03
2019-06-15T15:15:10.292Z,63.79
2019-06-15T15:17:39.306Z,64.86
2019-06-15T15:20:09.204Z,63.54
2019-06-15T15:22:38.422Z,66.23
2019-06-15T15:25:08.191Z,68.10
2019-06-15T15:27:37.697Z,66.97
2019-06-15T15:30:09.512Z,65.61
2019-06-15T15:32:38.570Z,65.54
2019-06-15T15:35:07.853Z,62.13
2019-06-15T15:37:37.286Z,63.73
2019-06-15T15:40:07.479Z,63.39
2019-06-15T15:42:37.323Z,63.08
2019-06-15T15:45:08.426Z,62.93
2019-06-15T15:47:37.483Z,61.80
2019-06-15T15:50:07.941Z,63.39
2019-06-15T15:52:37.757Z,61.42
2019-06-15T15:55:09.771Z,61.71
2019-06-15T15:57:38.817Z,62.27
2019-06-15T16:00:08.711Z,62.52
2019-06-15T16:02:48.205Z,62.71
2019-06-15T16:05:09.182Z,62.62
2019-06-15T16:07:40.308Z,62.83
2019-06-15T16:10:09.622Z,62.15
2019-06-15T16:12:38.853Z,62.03
2019-06-15T16:15:09.366Z,60.73
2019-06-15T16:17:38.480Z,58.77
2019-06-15T16:20:10.606Z,60.01
2019-06-15T16:22:39.878Z,61.38
2019-06-15T16:25:09.227Z,60.01
2019-06-15T16:27:38.258Z,61.42
2019-06-15T16:30:08.668Z,59.89
2019-06-15T16:32:37.677Z,60.56
2019-06-15T16:35:07.899Z,59.62
2019-06-15T16:37:37.088Z,58.03
2019-06-15T16:40:07.671Z,58.71
2019-06-15T16:42:36.891Z,60.60
2019-06-15T16:45:07.839Z,59.73
2019-06-15T16:47:38.769Z,59.05
2019-06-15T16:50:08.053Z,60.96
2019-06-15T16:52:37.067Z,61.52
2019-06-15T16:55:10.907Z,59.15
2019-06-15T16:57:38.531Z,60.44
2019-06-15T17:00:20.105Z,60.75
2019-06-15T17:02:50.310Z,62.22
2019-06-15T17:05:19.994Z,62.58
2019-06-15T17:07:52.096Z,61.21
2019-06-15T17:10:30.288Z,60.35
2019-06-15T17:13:06.752Z,60.81
2019-06-15T17:15:37.843Z,62.19
2019-06-15T17:18:07.708Z,62.21
2019-06-15T17:20:48.258Z,62.80
2019-06-15T17:23:18.121Z,63.01
2019-06-15T17:25:47.519Z,63.30
2019-06-15T17:28:16.593Z,63.37
2019-06-15T17:30:45.763Z,64.64
2019-06-15T17:33:16.946Z,65.96
2019-06-15T17:35:58.419Z,67.53
2019-06-15T17:38:16.998Z,67.28
2019-06-15T17:40:46.490Z,67.25
2019-06-15T17:43:16.176Z,66.47
2019-06-15T17:45:46.898Z,68.92
2019-06-15T17:48:17.401Z,68.22
2019-06-15T17:50:47.669Z,66.55
2019-06-15T17:53:17.299Z,66.93
2019-06-15T17:55:46.890Z,66.06
2019-06-15T17:58:16.998Z,66.51
2019-06-15T18:00:48.241Z,64.85
2019-06-15T18:03:18.306Z,65.27
2019-06-15T18:05:48.470Z,64.91
2019-06-15T18:08:18.095Z,65.82
2019-06-15T18:10:48.144Z,65.97
2019-06-15T18:13:17.585Z,65.60
2019-06-15T18:15:47.575Z,64.32
2019-06-15T18:18:17.372Z,64.27
2019-06-15T18:20:46.699Z,64.85
2019-06-15T18:23:17.501Z,64.09
2019-06-15T18:25:47.093Z,64.69
2019-06-15T18:28:17.942Z,65.90
2019-06-15T18:30:50.326Z,68.18
2019-06-15T18:33:19.496Z,68.90
2019-06-15T18:35:48.584Z,70.12
2019-06-15T18:38:18.287Z,70.37
2019-06-15T18:40:48.186Z,68.99
2019-06-15T18:43:17.651Z,69.05
2019-06-15T18:45:47.616Z,69.14
2019-06-15T18:48:17.883Z,67.74
2019-06-15T18:50:47.266Z,67.47
2019-06-15T18:53:16.380Z,68.05
2019-06-15T18:55:47.339Z,69.49
2019-06-15T18:58:17.335Z,70.19
2019-06-15T19:00:47.024Z,68.83
2019-06-15T19:03:16.798Z,69.78
2019-06-15T19:05:47.364Z,70.93
2019-06-15T19:08:17.455Z,70.81
2019-06-15T19:10:47.102Z,71.99
2019-06-15T19:13:16.351Z,71.88
2019-06-15T19:15:46.869Z,71.58
2019-06-15T19:18:17.771Z,70.91
2019-06-15T19:20:47.088Z,72.00
2019-06-15T19:23:16.390Z,71.74
2019-06-15T19:25:46.948Z,71.49
2019-06-15T19:28:16.847Z,71.40
2019-06-15T19:30:47.350Z,72.49
2019-06-15T19:33:16.653Z,71.79
2019-06-15T19:35:46.477Z,72.38
2019-06-15T19:38:16.302Z,73.67
2019-06-15T19:40:46.346Z,73.87
2019-06-15T19:43:16.379Z,74.71
2019-06-15T19:45:46.089Z,74.88
2019-06-15T19:48:17.072Z,75.53
2019-06-15T19:50:46.326Z,76.38
2019-06-15T19:53:17.289Z,77.78
2019-06-15T19:55:46.915Z,78.84
2019-06-15T19:58:16.531Z,78.29
2019-06-15T20:00:46.760Z,78.20
2019-06-15T20:03:16.896Z,78.63
2019-06-15T20:05:46.324Z,78.63
2019-06-15T20:08:17.727Z,78.61
2019-06-15T20:10:47.617Z,78.51
2019-06-15T20:13:17.247Z,79.08
2019-06-15T20:15:47.047Z,79.95
2019-06-15T20:18:17.731Z,79.57
2019-06-15T20:20:47.684Z,80.18
2019-06-15T20:23:18.726Z,80.48
2019-06-15T20:25:47.861Z,80.38
2019-06-15T20:28:17.142Z,80.11
2019-06-15T20:30:47.362Z,79.58
2019-06-15T20:33:16.830Z,80.17
2019-06-15T20:35:47.422Z,80.59
2019-06-15T20:38:16.678Z,79.50
2019-06-15T20:40:47.736Z,78.98
2019-06-15T20:43:17.209Z,79.40
2019-06-15T20:45:47.914Z,80.69
2019-06-15T20:48:17.208Z,81.48
2019-06-15T20:50:47.115Z,81.79
2019-06-15T20:53:17.178Z,82.66
2019-06-15T20:55:46.992Z,81.96
2019-06-15T20:58:17.126Z,81.68
2019-06-15T21:00:47.679Z,82.41
2019-06-15T21:03:17.055Z,83.79
2019-06-15T21:05:48.371Z,85.23
2019-06-15T21:08:18.913Z,85.22
2019-06-15T21:10:49.048Z,85.83
2019-06-15T21:13:18.209Z,86.01
2019-06-15T21:15:48.013Z,86.35
2019-06-15T21:18:17.120Z,85.97
2019-06-15T21:20:47.377Z,86.03
2019-06-15T21:23:17.938Z,87.91
2019-06-15T21:25:47.679Z,87.14
2019-06-15T21:28:17.402Z,88.33
2019-06-15T21:30:47.292Z,89.49
2019-06-15T21:33:16.784Z,89.45
2019-06-15T21:35:51.649Z,89.74
2019-06-15T21:38:16.698Z,89.72
2019-06-15T21:40:47.516Z,90.00
2019-06-15T21:43:17.278Z,90.79
2019-06-15T21:45:46.495Z,90.72
2019-06-15T21:48:16.225Z,91.43
2019-06-15T21:50:47.216Z,93.54
2019-06-15T21:53:21.403Z,94.78
2019-06-15T21:55:59.241Z,95.36
2019-06-15T21:58:29.715Z,95.09
2019-06-15T22:01:26.190Z,94.22
2019-06-15T22:03:55.944Z,94.41
2019-06-15T22:06:26.272Z,95.31
2019-06-15T22:08:57.647Z,94.42
2019-06-15T22:11:27.250Z,95.00
2019-06-15T22:13:58.079Z,91.23
2019-06-15T22:16:27.674Z,92.24
2019-06-15T22:18:57.035Z,91.75
2019-06-15T22:21:28.118Z,91.64
2019-06-15T22:23:56.829Z,91.92
2019-06-15T22:26:26.803Z,93.12
2019-06-15T22:28:56.973Z,91.93
2019-06-15T22:31:27.435Z,92.90
2019-06-15T22:33:56.819Z,94.65
2019-06-15T22:36:28.457Z,93.75
2019-06-15T22:38:57.069Z,93.36
2019-06-15T22:41:26.136Z,93.64
2019-06-15T22:43:56.843Z,93.38
2019-06-15T22:46:26.353Z,94.50
2019-06-15T22:48:56.207Z,94.13
2019-06-15T22:51:27.534Z,92.59
2019-06-15T22:53:56.703Z,91.91
2019-06-15T22:56:26.386Z,91.34
2019-06-15T22:58:56.996Z,90.66
2019-06-15T23:01:26.317Z,90.13
2019-06-15T23:03:57.102Z,91.13
2019-06-15T23:06:37.406Z,90.17
2019-06-15T23:08:57.127Z,89.36
2019-06-15T23:11:26.733Z,89.84
2019-06-15T23:13:57.444Z,89.45
2019-06-15T23:16:27.530Z,89.03
2019-06-15T23:18:57.342Z,89.68
2019-06-15T23:21:27.089Z,89.50
2019-06-15T23:23:56.475Z,89.58
2019-06-15T23:26:25.983Z,88.78
2019-06-15T23:28:56.427Z,88.67
2019-06-15T23:31:25.834Z,89.33
2019-06-15T23:33:56.049Z,89.07
2019-06-15T23:36:29.885Z,89.13
2019-06-15T23:38:58.934Z,88.85
2019-06-15T23:41:28.224Z,89.26
2019-06-15T23:43:57.254Z,89.13
2019-06-15T23:46:27.107Z,89.17
2019-06-15T23:48:56.679Z,89.97
2019-06-15T23:51:26.478Z,90.30
2019-06-15T23:53:57.231Z,89.43
2019-06-15T23:56:26.460Z,89.81
2019-06-15T23:58:56.040Z,89.67
